Time;durP1;ratioP1;P1;durP2;ratioP2;P2;SDS_P1;SDS_P2;PMS_P1;PMS_P2;Temp;Humidity;BMP_temperature;BMP_pressure;BME280_temperature;BME280_humidity;BME280_pressure;Samples;Min_cycle;Max_cycle;Signal;HPM_P1;HPM_P2
2021/03/09 00:00:15;;;;;;;15.25;8.65;;;8.00;93.40;;;;;;5042942;28;20219;-59
2021/03/09 00:02:41;;;;;;;12.32;7.70;;;8.00;93.30;;;;;;5041731;28;20033;-60
2021/03/09 00:05:08;;;;;;;13.05;8.25;;;8.00;93.40;;;;;;5026370;28;20033;-59
2021/03/09 00:07:35;;;;;;;14.38;8.15;;;7.90;93.50;;;;;;5026230;28;20021;-60
2021/03/09 00:10:00;;;;;;;11.38;7.88;;;8.00;93.30;;;;;;5025134;28;20033;-60
2021/03/09 00:12:27;;;;;;;11.27;6.93;;;8.00;93.20;;;;;;5026296;28;20438;-60
2021/03/09 00:14:53;;;;;;;11.70;6.97;;;8.00;93.10;;;;;;5025550;28;20581;-60
2021/03/09 00:17:19;;;;;;;12.55;7.80;;;8.00;93.30;;;;;;5025693;28;20025;-60
2021/03/09 00:19:45;;;;;;;11.88;6.90;;;7.90;93.20;;;;;;5025788;28;20033;-60
2021/03/09 00:22:11;;;;;;;12.60;7.88;;;8.00;93.20;;;;;;5025079;28;20029;-60
2021/03/09 00:24:37;;;;;;;12.30;8.02;;;8.00;93.00;;;;;;5025817;28;20025;-60
2021/03/09 00:27:03;;;;;;;10.27;6.57;;;7.90;93.00;;;;;;5025576;28;20515;-60
2021/03/09 00:29:28;;;;;;;9.40;6.25;;;7.80;93.10;;;;;;5026351;28;20021;-60
2021/03/09 00:31:55;;;;;;;11.13;6.60;;;7.70;93.20;;;;;;5024946;28;20056;-60
2021/03/09 00:34:22;;;;;;;12.05;7.40;;;7.80;93.10;;;;;;5025460;28;20025;-60
2021/03/09 00:36:47;;;;;;;14.57;8.85;;;7.70;93.30;;;;;;5024176;28;20044;-60
2021/03/09 00:39:13;;;;;;;11.27;7.28;;;7.70;93.30;;;;;;5025345;28;20029;-60
2021/03/09 00:41:38;;;;;;;16.30;9.50;;;7.60;93.30;;;;;;5025408;28;20488;-60
2021/03/09 00:44:04;;;;;;;13.52;7.80;;;7.60;93.20;;;;;;5030389;28;20031;-60
2021/03/09 00:46:30;;;;;;;13.23;8.10;;;7.70;93.50;;;;;;5045693;28;20438;-60
2021/03/09 00:48:56;;;;;;;13.52;8.63;;;7.60;93.50;;;;;;5044846;28;20025;-60
2021/03/09 00:51:21;;;;;;;13.85;8.25;;;7.70;93.60;;;;;;5076626;28;20033;-60
2021/03/09 00:53:47;;;;;;;11.43;7.72;;;7.60;93.40;;;;;;5045589;28;20534;-60
2021/03/09 00:56:12;;;;;;;14.65;9.50;;;7.50;93.50;;;;;;5045054;28;20086;-60
2021/03/09 00:58:38;;;;;;;13.55;8.40;;;7.50;93.70;;;;;;5044832;28;20363;-59
2021/03/09 01:01:04;;;;;;;14.98;8.70;;;7.50;93.60;;;;;;5043591;28;20041;-60
2021/03/09 01:03:30;;;;;;;14.27;8.88;;;7.50;93.80;;;;;;5044705;28;20021;-60
2021/03/09 01:05:56;;;;;;;17.20;9.50;;;7.40;94.00;;;;;;5044752;28;20029;-60
2021/03/09 01:08:22;;;;;;;14.98;10.15;;;7.30;93.80;;;;;;5044964;28;20153;-60
2021/03/09 01:10:48;;;;;;;16.10;10.20;;;7.20;94.10;;;;;;5045624;28;20033;-60
2021/03/09 01:13:15;;;;;;;14.30;9.07;;;7.20;93.90;;;;;;5044978;28;20032;-60
2021/03/09 01:15:41;;;;;;;14.00;8.98;;;7.20;93.90;;;;;;5045064;28;20078;-60
2021/03/09 01:18:07;;;;;;;12.75;8.80;;;7.30;94.10;;;;;;5044283;28;20521;-60
2021/03/09 01:20:32;;;;;;;14.52;8.80;;;7.30;94.10;;;;;;5043746;28;20055;-60
2021/03/09 01:22:58;;;;;;;14.98;9.50;;;7.20;94.20;;;;;;5043885;28;20383;-60
2021/03/09 01:25:25;;;;;;;14.45;8.85;;;7.10;94.20;;;;;;5044532;28;20033;-60
2021/03/09 01:27:52;;;;;;;14.32;8.00;;;7.10;94.30;;;;;;5044533;28;20025;-60
2021/03/09 01:30:18;;;;;;;13.02;7.95;;;7.20;94.30;;;;;;5045014;28;20474;-60
2021/03/09 01:32:44;;;;;;;12.73;7.68;;;7.20;94.10;;;;;;5044870;28;20032;-60
2021/03/09 01:35:11;;;;;;;13.13;8.25;;;7.20;94.30;;;;;;5042235;28;20037;-60
2021/03/09 01:37:36;;;;;;;13.43;8.90;;;7.10;94.50;;;;;;5044788;28;20301;-59
2021/03/09 01:40:05;;;;;;;14.30;9.02;;;7.10;94.00;;;;;;5044121;28;20491;-59
2021/03/09 01:42:31;;;;;;;13.88;8.65;;;7.00;94.20;;;;;;5044380;28;20052;-60
2021/03/09 01:44:56;;;;;;;12.93;8.20;;;7.10;94.40;;;;;;5044114;28;20486;-60
2021/03/09 01:47:22;;;;;;;13.70;8.60;;;7.20;94.40;;;;;;5044265;28;20035;-60
2021/03/09 01:49:48;;;;;;;13.73;8.73;;;7.10;94.10;;;;;;5045109;28;20056;-60
2021/03/09 01:52:14;;;;;;;14.32;8.70;;;7.00;94.10;;;;;;5044334;28;20039;-60
2021/03/09 01:54:40;;;;;;;11.18;7.70;;;7.10;94.10;;;;;;5044361;28;20622;-60
2021/03/09 01:57:09;;;;;;;11.73;7.45;;;7.20;93.90;;;;;;5043089;28;20064;-60
2021/03/09 01:59:36;;;;;;;12.60;7.70;;;7.20;94.10;;;;;;5043953;28;20515;-60
2021/03/09 02:02:03;;;;;;;12.98;7.85;;;7.20;94.20;;;;;;5043269;28;20040;-60
2021/03/09 02:04:30;;;;;;;14.30;9.65;;;7.10;94.20;;;;;;5044124;28;20032;-60
2021/03/09 02:06:56;;;;;;;14.27;8.50;;;6.90;94.30;;;;;;5044117;28;20060;-60
2021/03/09 02:09:22;;;;;;;10.60;7.40;;;6.90;94.50;;;;;;5043881;28;20025;-60
2021/03/09 02:12:22;;;;;;;12.30;7.70;;;7.10;94.30;;;;;;5044384;28;20037;-60
2021/03/09 02:15:12;;;;;;;9.50;6.75;;;7.00;94.20;;;;;;5044804;28;20124;-60
2021/03/09 02:17:47;;;;;;;11.73;7.63;;;7.10;94.30;;;;;;5043787;28;20039;-60
2021/03/09 02:20:13;;;;;;;11.20;7.10;;;7.00;94.40;;;;;;5043822;28;20118;-60
2021/03/09 02:23:15;;;;;;;12.95;7.75;;;7.00;94.50;;;;;;5044121;28;20140;-60
2021/03/09 02:26:08;;;;;;;12.10;8.02;;;7.00;94.40;;;;;;5044223;28;20031;-60
2021/03/09 02:28:39;;;;;;;12.00;8.40;;;6.90;94.40;;;;;;5044092;28;20027;-60
2021/03/09 02:31:06;;;;;;;14.15;8.30;;;6.80;94.60;;;;;;5043937;28;20047;-60
2021/03/09 02:33:46;;;;;;;14.25;8.80;;;6.70;94.80;;;;;;5043684;28;20466;-60
2021/03/09 02:36:19;;;;;;;12.95;8.50;;;6.80;94.70;;;;;;5043975;28;20040;-60
2021/03/09 02:39:17;;;;;;;14.00;9.25;;;6.90;94.60;;;;;;5044411;28;20407;-60
2021/03/09 02:41:45;;;;;;;11.70;7.65;;;6.80;94.70;;;;;;5042133;28;20047;-60
2021/03/09 02:44:14;;;;;;;11.60;7.57;;;7.00;94.60;;;;;;5044197;28;20035;-60
2021/03/09 02:46:42;;;;;;;9.90;7.00;;;7.00;94.70;;;;;;5046225;28;20021;-60
2021/03/09 02:49:11;;;;;;;10.02;6.80;;;7.00;94.60;;;;;;5046991;28;20394;-60
2021/03/09 02:51:38;;;;;;;12.02;7.85;;;7.00;94.50;;;;;;5047270;28;20017;-60
2021/03/09 02:54:05;;;;;;;11.45;7.68;;;6.90;94.70;;;;;;5047296;28;20454;-60
2021/03/09 02:56:32;;;;;;;17.33;8.60;;;6.80;94.80;;;;;;5047664;28;20502;-60
2021/03/09 02:58:59;;;;;;;14.57;8.43;;;6.80;94.90;;;;;;5047095;28;20033;-60
2021/03/09 03:01:27;;;;;;;10.60;6.65;;;6.70;95.00;;;;;;5047246;28;20028;-60
2021/03/09 03:03:54;;;;;;;12.05;8.15;;;6.80;94.80;;;;;;5046766;28;20033;-60
2021/03/09 03:06:20;;;;;;;11.93;8.13;;;6.60;94.90;;;;;;5047210;28;20025;-59
2021/03/09 03:08:48;;;;;;;12.15;8.02;;;6.60;95.00;;;;;;5046623;28;20033;-60
2021/03/09 03:11:14;;;;;;;13.07;8.38;;;6.50;94.80;;;;;;5046874;28;20540;-60
2021/03/09 03:13:41;;;;;;;11.50;7.85;;;6.50;95.20;;;;;;5046990;28;20035;-60
2021/03/09 03:16:09;;;;;;;15.15;8.23;;;6.50;95.20;;;;;;5047101;28;20040;-60
2021/03/09 03:18:42;;;;;;;13.55;7.85;;;6.60;94.80;;;;;;5045755;28;20021;-60
2021/03/09 03:21:10;;;;;;;11.23;7.53;;;6.50;95.20;;;;;;5047055;28;20032;-60
2021/03/09 03:23:37;;;;;;;14.27;7.63;;;6.50;95.10;;;;;;5046820;28;20029;-60
2021/03/09 03:26:06;;;;;;;11.55;7.82;;;6.50;95.00;;;;;;5046670;28;20025;-60
2021/03/09 03:28:37;;;;;;;10.98;6.95;;;6.40;95.20;;;;;;5047460;28;20035;-60
2021/03/09 03:31:03;;;;;;;11.38;7.40;;;6.40;95.30;;;;;;5047012;28;20029;-60
2021/03/09 03:33:31;;;;;;;10.57;7.10;;;6.40;95.10;;;;;;5047068;28;20024;-60
2021/03/09 03:36:04;;;;;;;11.93;7.65;;;6.40;95.20;;;;;;5046510;28;20021;-60
2021/03/09 03:38:35;;;;;;;11.80;7.40;;;6.40;95.00;;;;;;5047223;28;20396;-60
2021/03/09 03:41:02;;;;;;;12.82;8.13;;;6.40;95.10;;;;;;5046860;28;20029;-60
2021/03/09 03:43:28;;;;;;;10.65;7.32;;;6.30;95.30;;;;;;5045681;28;20054;-60
2021/03/09 03:45:54;;;;;;;10.15;6.85;;;6.40;95.10;;;;;;5046124;28;20575;-60
2021/03/09 03:48:21;;;;;;;11.35;7.18;;;6.20;95.20;;;;;;5046615;28;20092;-61
2021/03/09 03:50:49;;;;;;;12.85;8.45;;;6.20;95.30;;;;;;5046407;28;20017;-61
2021/03/09 03:53:34;;;;;;;11.18;7.07;;;6.30;95.50;;;;;;5046014;28;20411;-60
2021/03/09 03:56:35;;;;;;;12.30;7.22;;;6.30;95.30;;;;;;5046661;28;20067;-60
2021/03/09 03:59:05;;;;;;;10.23;7.18;;;6.30;95.50;;;;;;5044495;28;20549;-61
2021/03/09 04:01:32;;;;;;;11.43;8.02;;;6.20;95.50;;;;;;5046485;28;20049;-60
2021/03/09 04:04:04;;;;;;;10.73;7.43;;;6.00;95.60;;;;;;5046182;28;20441;-60
2021/03/09 04:06:31;;;;;;;10.98;6.47;;;6.10;95.60;;;;;;5046714;28;20021;-60
2021/03/09 04:09:00;;;;;;;10.90;7.07;;;6.10;95.70;;;;;;5045235;28;20031;-60
2021/03/09 04:11:26;;;;;;;9.52;7.03;;;6.20;95.60;;;;;;5045865;28;20025;-60
2021/03/09 04:13:52;;;;;;;9.23;6.68;;;6.20;95.50;;;;;;5045807;28;20478;-60
2021/03/09 04:16:20;;;;;;;10.50;6.65;;;6.20;95.60;;;;;;5045674;28;20108;-61
2021/03/09 04:18:48;;;;;;;9.77;6.53;;;6.30;95.50;;;;;;5045442;28;20117;-60
2021/03/09 04:21:15;;;;;;;10.15;6.78;;;6.20;95.40;;;;;;5045406;28;20076;-60
2021/03/09 04:23:42;;;;;;;9.55;6.47;;;6.20;95.70;;;;;;5045613;28;20044;-60
2021/03/09 04:26:09;;;;;;;9.55;6.50;;;6.30;95.60;;;;;;5045626;28;20624;-60
2021/03/09 04:28:37;;;;;;;10.30;6.80;;;6.30;95.60;;;;;;5045849;28;20507;-60
2021/03/09 04:31:04;;;;;;;9.88;6.78;;;6.10;95.70;;;;;;5045246;28;20021;-60
2021/03/09 04:33:31;;;;;;;9.40;6.30;;;6.10;95.70;;;;;;5046118;28;20051;-60
2021/03/09 04:35:57;;;;;;;12.88;7.30;;;6.20;95.70;;;;;;5045353;28;20025;-60
2021/03/09 04:38:25;;;;;;;11.75;7.65;;;6.00;95.70;;;;;;5045357;28;20128;-60
2021/03/09 04:40:52;;;;;;;9.32;6.25;;;5.90;95.80;;;;;;5043850;28;20048;-60
2021/03/09 04:43:19;;;;;;;10.95;7.00;;;6.00;95.60;;;;;;5045594;28;20029;-60
2021/03/09 04:45:45;;;;;;;11.52;6.50;;;5.90;95.90;;;;;;5045134;28;20380;-60
2021/03/09 04:48:11;;;;;;;10.38;7.05;;;5.90;95.80;;;;;;5045276;28;20043;-61
2021/03/09 04:50:38;;;;;;;10.60;6.82;;;5.90;95.50;;;;;;5045161;28;20028;-60
2021/03/09 04:53:07;;;;;;;10.90;6.63;;;5.90;95.60;;;;;;5043543;28;20021;-60
2021/03/09 04:55:34;;;;;;;11.07;7.32;;;5.80;95.80;;;;;;5044285;28;20439;-60
2021/03/09 04:58:01;;;;;;;11.85;7.97;;;5.80;95.90;;;;;;5044631;28;20025;-60
2021/03/09 05:00:27;;;;;;;10.05;6.90;;;5.70;95.50;;;;;;5045188;28;20020;-61
2021/03/09 05:02:54;;;;;;;12.55;7.20;;;5.70;95.70;;;;;;5044803;28;20710;-60
2021/03/09 05:05:24;;;;;;;8.88;6.35;;;5.80;95.80;;;;;;5045231;28;20021;-60
2021/03/09 05:07:52;;;;;;;11.60;7.55;;;5.80;95.50;;;;;;5045026;28;20057;-60
2021/03/09 05:10:18;;;;;;;15.18;10.32;;;5.80;95.50;;;;;;5042729;28;20020;-60
2021/03/09 05:12:50;;;;;;;13.43;9.00;;;5.80;95.60;;;;;;5045621;28;20108;-60
2021/03/09 05:15:19;;;;;;;14.40;9.55;;;5.70;95.90;;;;;;5045601;28;20025;-60
2021/03/09 05:17:45;;;;;;;11.98;7.88;;;5.60;96.00;;;;;;5046400;28;20025;-60
2021/03/09 05:20:13;;;;;;;13.65;8.50;;;5.60;95.70;;;;;;5046476;28;20140;-60
2021/03/09 05:22:39;;;;;;;12.13;8.10;;;5.70;95.70;;;;;;5046104;28;20028;-60
2021/03/09 05:25:08;;;;;;;12.00;7.80;;;5.70;95.70;;;;;;5044572;28;20119;-60
2021/03/09 05:27:33;;;;;;;12.25;8.07;;;5.70;95.60;;;;;;5044906;28;20032;-60
2021/03/09 05:29:59;;;;;;;10.63;7.82;;;5.80;95.80;;;;;;5044426;28;20407;-61
2021/03/09 05:32:25;;;;;;;13.10;7.63;;;5.70;95.70;;;;;;5044431;28;20029;-61
2021/03/09 05:34:51;;;;;;;11.85;7.97;;;5.80;95.70;;;;;;5044174;28;20028;-60
2021/03/09 05:37:17;;;;;;;13.35;8.32;;;5.80;95.60;;;;;;5044707;28;20453;-60
2021/03/09 05:39:43;;;;;;;15.75;9.48;;;5.90;95.60;;;;;;5045161;28;20225;-60
2021/03/09 05:42:09;;;;;;;14.45;8.45;;;5.80;95.70;;;;;;5044336;28;20029;-60
2021/03/09 05:44:36;;;;;;;12.70;7.90;;;5.90;95.80;;;;;;5043978;28;20025;-60
2021/03/09 05:47:03;;;;;;;12.85;8.75;;;6.10;95.50;;;;;;5044147;28;20495;-61
2021/03/09 05:49:29;;;;;;;12.65;8.93;;;6.20;95.30;;;;;;5044421;28;20055;-60
2021/03/09 05:51:55;;;;;;;14.52;8.88;;;6.20;95.20;;;;;;5044156;28;20135;-61
2021/03/09 05:54:23;;;;;;;14.25;9.02;;;6.20;95.10;;;;;;5044174;28;20028;-60
2021/03/09 05:56:49;;;;;;;15.90;9.07;;;6.10;95.20;;;;;;5042939;28;20029;-61
2021/03/09 05:59:16;;;;;;;13.93;8.75;;;6.10;95.50;;;;;;5044527;28;20029;-61
2021/03/09 06:01:42;;;;;;;14.00;8.85;;;5.90;95.40;;;;;;5044061;28;20021;-62
2021/03/09 06:04:09;;;;;;;14.35;9.00;;;5.90;95.60;;;;;;5044141;28;20040;-61
2021/03/09 06:06:35;;;;;;;20.58;11.73;;;5.90;95.90;;;;;;5044327;28;20027;-61
2021/03/09 06:09:42;;;;;;;27.60;16.55;;;5.80;96.10;;;;;;5043550;28;20021;-61
2021/03/09 06:12:17;;;;;;;24.50;14.73;;;5.60;95.90;;;;;;5043609;28;20127;-61
2021/03/09 06:14:45;;;;;;;20.30;11.68;;;5.60;95.90;;;;;;5044763;28;20039;-61
2021/03/09 06:17:12;;;;;;;14.98;9.63;;;5.60;95.80;;;;;;5043713;28;20152;-61
2021/03/09 06:19:47;;;;;;;13.38;9.00;;;5.50;96.20;;;;;;5044272;28;20033;-61
2021/03/09 06:22:14;;;;;;;14.48;9.25;;;5.50;95.70;;;;;;5047910;28;20540;-61
2021/03/09 06:24:40;;;;;;;14.77;9.40;;;5.50;95.90;;;;;;5048081;28;20021;-61
2021/03/09 06:27:27;;;;;;;14.02;9.02;;;5.50;95.70;;;;;;5048188;28;20102;-61
2021/03/09 06:29:55;;;;;;;15.05;9.23;;;5.50;95.80;;;;;;5047443;28;20575;-61
2021/03/09 06:32:23;;;;;;;14.05;8.82;;;5.50;95.60;;;;;;5047799;28;20024;-61
2021/03/09 06:34:54;;;;;;;13.95;9.15;;;5.60;95.50;;;;;;5048041;28;20033;-61
2021/03/09 06:37:22;;;;;;;13.88;8.48;;;5.50;95.70;;;;;;5047947;28;20029;-61
2021/03/09 06:39:53;;;;;;;14.77;8.88;;;5.40;95.70;;;;;;5046658;28;20063;-61
2021/03/09 06:42:22;;;;;;;13.48;8.77;;;5.50;95.90;;;;;;5048146;28;20032;-61
2021/03/09 06:44:54;;;;;;;14.40;9.38;;;5.50;95.90;;;;;;5045870;28;20403;-61
2021/03/09 06:47:32;;;;;;;16.50;9.98;;;5.50;95.70;;;;;;5047704;28;20120;-61
2021/03/09 06:49:57;;;;;;;14.05;9.55;;;5.50;96.00;;;;;;5045543;28;20021;-61
2021/03/09 06:52:23;;;;;;;13.40;8.65;;;5.50;95.60;;;;;;5047454;28;20040;-61
2021/03/09 06:54:51;;;;;;;14.07;9.70;;;5.40;95.70;;;;;;5046487;28;20523;-61
2021/03/09 06:57:19;;;;;;;16.35;9.55;;;5.30;95.90;;;;;;5047743;28;20037;-61
2021/03/09 06:59:50;;;;;;;14.05;9.38;;;5.50;96.00;;;;;;5047931;28;20049;-61
2021/03/09 07:02:26;;;;;;;13.90;9.07;;;5.70;95.70;;;;;;5041596;28;20506;-61
2021/03/09 07:05:09;;;;;;;13.27;8.73;;;5.50;95.40;;;;;;5046906;28;20380;-61
2021/03/09 07:07:38;;;;;;;13.85;8.48;;;5.50;95.20;;;;;;5044956;28;20037;-61
2021/03/09 07:10:08;;;;;;;14.07;8.70;;;5.50;95.30;;;;;;5045918;28;20033;-61
2021/03/09 07:12:37;;;;;;;15.57;9.13;;;5.40;95.10;;;;;;5044665;28;20036;-61
2021/03/09 07:15:06;;;;;;;14.65;8.88;;;5.50;95.20;;;;;;5042531;28;20118;-61
2021/03/09 07:17:35;;;;;;;13.55;8.55;;;5.50;95.50;;;;;;5045560;28;20510;-61
2021/03/09 07:20:02;;;;;;;12.32;7.80;;;5.40;95.30;;;;;;5045952;28;20025;-61
2021/03/09 07:22:30;;;;;;;13.57;8.48;;;5.50;95.50;;;;;;5046605;28;20029;-61
2021/03/09 07:25:05;;;;;;;12.40;7.63;;;5.50;95.20;;;;;;5046240;28;20032;-61
2021/03/09 07:27:39;;;;;;;13.10;7.55;;;5.50;95.00;;;;;;5047227;28;20035;-61
2021/03/09 07:30:07;;;;;;;14.05;8.60;;;5.50;95.10;;;;;;5044972;28;20092;-61
2021/03/09 07:32:33;;;;;;;12.45;7.95;;;5.50;95.30;;;;;;5042205;28;20138;-61
2021/03/09 07:35:00;;;;;;;14.27;8.20;;;5.70;95.20;;;;;;5045309;28;20498;-61
2021/03/09 07:37:26;;;;;;;15.93;9.10;;;5.70;95.10;;;;;;5045864;28;20042;-61
2021/03/09 07:39:52;;;;;;;19.63;10.27;;;5.70;95.00;;;;;;5046630;28;20047;-62
2021/03/09 07:42:19;;;;;;;16.25;9.68;;;5.60;95.00;;;;;;5045802;28;20503;-61
2021/03/09 07:44:47;;;;;;;17.13;9.50;;;5.70;95.10;;;;;;5046494;28;20025;-61
2021/03/09 07:47:14;;;;;;;14.82;8.65;;;5.80;95.10;;;;;;5045344;28;20395;-61
2021/03/09 07:49:41;;;;;;;13.50;8.52;;;5.70;94.90;;;;;;5044804;28;20021;-62
2021/03/09 07:52:25;;;;;;;12.02;7.90;;;5.80;95.10;;;;;;5045525;28;20025;-61
2021/03/09 07:55:17;;;;;;;14.52;8.60;;;5.70;95.10;;;;;;5045302;28;20538;-61
2021/03/09 07:57:43;;;;;;;16.73;9.13;;;5.80;95.10;;;;;;5043743;28;20098;-61
2021/03/09 08:00:12;;;;;;;14.73;8.93;;;5.80;95.20;;;;;;5044009;28;20029;-61
2021/03/09 08:02:42;;;;;;;13.88;8.52;;;5.90;94.90;;;;;;5044443;28;20372;-61
2021/03/09 08:05:09;;;;;;;12.55;8.13;;;5.80;94.80;;;;;;5045232;28;20056;-61
2021/03/09 08:08:09;;;;;;;12.27;7.63;;;5.90;94.90;;;;;;5044620;28;20040;-61
2021/03/09 08:10:35;;;;;;;13.70;8.63;;;5.90;94.70;;;;;;5043664;28;20108;-61
2021/03/09 08:13:07;;;;;;;12.45;8.10;;;6.00;95.10;;;;;;5045040;28;20111;-61
2021/03/09 08:15:38;;;;;;;11.93;7.75;;;6.00;95.10;;;;;;5046429;28;20041;-61
2021/03/09 08:18:21;;;;;;;12.68;7.93;;;6.10;94.90;;;;;;5047309;28;20043;-61
2021/03/09 08:20:48;;;;;;;14.07;8.52;;;5.90;94.90;;;;;;5046462;28;20029;-61
2021/03/09 08:23:52;;;;;;;15.20;8.93;;;5.70;95.30;;;;;;5046077;28;20079;-61
2021/03/09 08:26:21;;;;;;;16.13;9.17;;;5.80;95.30;;;;;;5023314;28;20044;-61
2021/03/09 08:28:47;;;;;;;12.18;7.72;;;6.10;95.20;;;;;;5042233;28;20060;-61
2021/03/09 08:31:13;;;;;;;12.85;7.53;;;6.10;95.00;;;;;;5046188;28;20033;-61
2021/03/09 08:33:39;;;;;;;13.50;7.68;;;6.20;94.70;;;;;;5045419;28;20376;-61
2021/03/09 08:36:20;;;;;;;12.52;7.05;;;6.40;94.80;;;;;;5045517;28;20028;-61
2021/03/09 08:41:35;;;;;;;15.23;7.80;;;6.40;94.50;;;;;;5045514;28;20434;-61
2021/03/09 08:44:22;;;;;;;13.20;6.82;;;6.40;94.50;;;;;;5044623;28;20490;-61
2021/03/09 08:47:04;;;;;;;10.35;6.82;;;6.30;94.90;;;;;;5045432;28;20479;-61
2021/03/09 08:49:36;;;;;;;11.63;6.85;;;6.40;94.60;;;;;;5045382;28;20017;-62
2021/03/09 08:52:18;;;;;;;10.88;6.93;;;6.70;94.90;;;;;;5044997;28;20025;-61
2021/03/09 08:54:48;;;;;;;9.68;6.15;;;6.80;94.20;;;;;;5045991;28;20128;-61
2021/03/09 08:57:24;;;;;;;13.73;7.65;;;6.80;94.20;;;;;;5045620;28;20510;-62
2021/03/09 09:00:01;;;;;;;14.70;7.82;;;6.50;94.30;;;;;;5044787;28;20503;-61
2021/03/09 09:02:28;;;;;;;12.85;7.60;;;6.30;94.70;;;;;;5045430;28;20044;-61
2021/03/09 09:04:58;;;;;;;11.55;6.85;;;6.50;94.40;;;;;;5045150;28;20082;-61
2021/03/09 09:07:39;;;;;;;10.32;6.22;;;6.70;94.10;;;;;;5045126;28;20037;-61
2021/03/09 09:10:10;;;;;;;9.65;5.82;;;6.70;94.30;;;;;;5044306;28;20029;-61
2021/03/09 09:12:44;;;;;;;11.55;6.43;;;7.10;94.50;;;;;;5044807;28;20096;-62
2021/03/09 09:15:14;;;;;;;10.52;6.18;;;6.90;94.10;;;;;;5044603;28;20025;-62
2021/03/09 09:18:07;;;;;;;10.25;6.47;;;7.00;93.90;;;;;;5044732;28;20131;-61
2021/03/09 09:20:37;;;;;;;8.57;5.15;;;7.10;93.80;;;;;;5043630;28;20060;-62
2021/03/09 09:23:20;;;;;;;9.10;5.70;;;7.10;94.00;;;;;;5044489;28;20044;-62
2021/03/09 09:25:52;;;;;;;15.07;8.23;;;7.30;93.90;;;;;;5045474;28;20039;-61
2021/03/09 09:28:26;;;;;;;14.60;6.97;;;7.00;93.80;;;;;;5044473;28;20107;-61
2021/03/09 09:30:53;;;;;;;13.13;6.53;;;7.20;94.80;;;;;;5044676;28;20057;-61
2021/03/09 09:33:20;;;;;;;11.52;6.20;;;7.30;94.40;;;;;;5044579;28;20383;-61
2021/03/09 09:35:47;;;;;;;18.30;10.18;;;7.30;93.20;;;;;;5045422;28;20052;-61
2021/03/09 09:38:15;;;;;;;16.67;9.55;;;7.10;93.20;;;;;;5045025;28;20033;-60
2021/03/09 09:40:49;;;;;;;13.30;7.85;;;7.00;93.00;;;;;;5044698;28;20021;-61
2021/03/09 09:43:14;;;;;;;14.85;8.43;;;7.30;93.80;;;;;;5044725;28;20033;-61
2021/03/09 09:45:41;;;;;;;13.65;8.52;;;7.20;93.60;;;;;;5044359;28;20029;-61
2021/03/09 09:48:11;;;;;;;17.27;10.00;;;7.20;92.90;;;;;;5044473;28;20029;-61
2021/03/09 09:50:45;;;;;;;15.35;8.27;;;7.30;93.10;;;;;;5044887;28;20692;-61
2021/03/09 09:53:12;;;;;;;;;;;7.60;92.70;;;;;;5044567;28;20017;-61
2021/03/09 09:55:38;;;;;;;18.25;10.75;;;7.90;92.60;;;;;;5045686;28;20058;-61
2021/03/09 09:58:04;;;;;;;20.88;11.90;;;7.60;92.00;;;;;;5048262;28;20120;-59
2021/03/09 10:00:32;;;;;;;19.45;12.27;;;7.40;92.30;;;;;;5048768;28;20531;-61
2021/03/09 10:03:12;;;;;;;16.73;10.45;;;7.40;92.70;;;;;;5048031;28;20388;-61
2021/03/09 10:05:39;;;;;;;16.80;9.15;;;7.50;92.20;;;;;;5048588;28;20419;-62
2021/03/09 10:08:06;;;;;;;20.52;11.43;;;7.90;93.50;;;;;;5048201;28;20045;-61
2021/03/09 10:10:33;;;;;;;14.23;9.27;;;7.70;92.00;;;;;;5047622;28;20047;-62
2021/03/09 10:12:59;;;;;;;16.73;10.20;;;7.90;92.50;;;;;;5047948;28;20025;-61
2021/03/09 10:15:46;;;;;;;15.65;8.38;;;8.00;91.70;;;;;;5048618;28;20032;-62
2021/03/09 10:18:24;;;;;;;10.20;6.63;;;8.10;91.70;;;;;;5047984;28;20021;-61
2021/03/09 10:20:58;;;;;;;13.45;7.85;;;8.10;92.00;;;;;;5048263;28;20028;-61
2021/03/09 10:23:24;;;;;;;10.18;6.50;;;8.10;91.30;;;;;;5048024;28;20029;-61
2021/03/09 10:25:57;;;;;;;11.65;7.00;;;8.10;91.10;;;;;;5048054;28;20031;-62
2021/03/09 10:28:26;;;;;;;11.70;7.50;;;8.00;90.20;;;;;;5048045;28;20033;-61
2021/03/09 10:30:52;;;;;;;10.45;6.28;;;8.10;90.40;;;;;;5048271;28;20017;-61
2021/03/09 10:33:18;;;;;;;13.02;7.93;;;8.50;90.50;;;;;;5047740;28;20025;-61
2021/03/09 10:36:08;;;;;;;14.00;8.27;;;8.20;90.60;;;;;;5048709;28;20225;-61
2021/03/09 10:38:34;;;;;;;10.63;6.57;;;8.30;90.70;;;;;;5047890;28;20055;-61
2021/03/09 10:41:00;;;;;;;10.57;6.55;;;8.50;90.30;;;;;;5047738;28;20021;-61
2021/03/09 10:43:41;;;;;;;7.95;5.32;;;8.40;89.90;;;;;;5047613;28;20415;-62
2021/03/09 10:46:10;;;;;;;9.95;5.68;;;8.60;90.10;;;;;;5047761;28;20052;-61
2021/03/09 10:48:36;;;;;;;11.80;7.13;;;8.70;90.10;;;;;;5047868;28;20017;-62
2021/03/09 10:51:02;;;;;;;11.77;7.38;;;8.50;90.20;;;;;;5047547;28;20021;-62
2021/03/09 10:53:29;;;;;;;13.75;8.90;;;8.60;90.00;;;;;;5047484;28;20104;-61
2021/03/09 10:55:54;;;;;;;10.85;6.70;;;8.80;90.00;;;;;;5047311;28;20096;-60
2021/03/09 10:58:20;;;;;;;11.70;7.13;;;8.90;88.70;;;;;;5047235;28;20112;-62
2021/03/09 11:00:47;;;;;;;9.18;6.00;;;8.90;90.40;;;;;;5047904;28;20017;-61
2021/03/09 11:03:13;;;;;;;9.90;6.18;;;9.00;88.70;;;;;;5047669;28;20059;-62
2021/03/09 11:05:39;;;;;;;9.63;6.18;;;9.20;90.20;;;;;;5047286;28;20060;-62
2021/03/09 11:08:06;;;;;;;9.25;6.10;;;9.20;88.00;;;;;;5046627;28;20068;-62
2021/03/09 11:10:31;;;;;;;14.65;7.65;;;9.20;88.90;;;;;;5046899;28;20457;-61
2021/03/09 11:12:58;;;;;;;13.45;8.07;;;9.20;89.00;;;;;;5046567;28;20057;-61
2021/03/09 11:15:24;;;;;;;15.60;9.23;;;9.10;88.00;;;;;;5047155;28;20091;-61
2021/03/09 11:17:50;;;;;;;17.02;10.38;;;9.10;86.70;;;;;;5047169;28;20529;-60
2021/03/09 11:20:17;;;;;;;17.80;10.60;;;8.90;87.30;;;;;;5047587;28;20025;-62
2021/03/09 11:22:43;;;;;;;12.75;7.97;;;8.90;88.00;;;;;;5047453;28;20028;-61
2021/03/09 11:25:10;;;;;;;12.30;8.15;;;9.20;88.20;;;;;;5046742;28;20028;-62
2021/03/09 11:27:36;;;;;;;11.30;7.53;;;9.40;89.40;;;;;;5046881;28;20025;-62
2021/03/09 11:30:02;;;;;;;11.35;7.57;;;9.60;86.70;;;;;;5046861;28;20028;-62
2021/03/09 11:32:27;;;;;;;8.95;5.93;;;9.60;87.10;;;;;;5046890;28;20093;-62
2021/03/09 11:34:53;;;;;;;14.25;8.13;;;9.80;86.30;;;;;;5046607;28;20136;-60
2021/03/09 11:37:19;;;;;;;14.02;8.63;;;9.70;85.20;;;;;;5047223;28;20039;-62
2021/03/09 11:39:45;;;;;;;16.02;9.80;;;9.60;87.70;;;;;;5047590;28;20067;-62
2021/03/09 11:42:11;;;;;;;12.05;7.35;;;9.80;86.20;;;;;;5046049;28;20115;-62
2021/03/09 11:44:36;;;;;;;8.82;5.97;;;9.90;85.70;;;;;;5046813;28;20115;-62
2021/03/09 11:47:03;;;;;;;9.35;5.28;;;10.10;85.70;;;;;;5046504;28;20534;-62
2021/03/09 11:49:29;;;;;;;7.88;4.90;;;10.50;87.20;;;;;;5046614;28;20025;-62
2021/03/09 11:51:54;;;;;;;10.95;7.28;;;10.80;86.30;;;;;;5046418;28;20023;-62
2021/03/09 11:54:20;;;;;;;19.02;10.30;;;10.60;85.60;;;;;;5046519;28;20033;-62
2021/03/09 11:56:45;;;;;;;15.13;8.82;;;10.40;85.80;;;;;;5047123;28;20052;-62
2021/03/09 11:59:11;;;;;;;11.75;7.35;;;10.40;85.60;;;;;;5046227;28;20037;-62
2021/03/09 12:01:37;;;;;;;10.23;6.28;;;10.70;86.10;;;;;;5046123;28;20435;-62
2021/03/09 12:04:02;;;;;;;9.43;6.15;;;11.00;84.20;;;;;;5045906;28;20063;-62
2021/03/09 12:06:28;;;;;;;16.35;10.55;;;11.30;84.00;;;;;;5046327;28;20491;-61
2021/03/09 12:08:55;;;;;;;18.88;11.40;;;10.60;83.50;;;;;;5045640;28;20036;-62
2021/03/09 12:11:21;;;;;;;18.40;11.35;;;10.60;84.30;;;;;;5045613;28;20052;-62
2021/03/09 12:13:46;;;;;;;13.88;9.77;;;10.80;86.30;;;;;;5046703;28;20126;-62
2021/03/09 12:16:12;;;;;;;18.30;12.23;;;11.20;83.90;;;;;;5046287;28;20029;-62
2021/03/09 12:18:38;;;;;;;15.90;10.18;;;10.70;83.30;;;;;;5045159;28;20114;-62
2021/03/09 12:21:04;;;;;;;12.45;8.23;;;10.90;83.30;;;;;;5045619;28;20025;-62
2021/03/09 12:23:30;;;;;;;12.02;7.32;;;10.90;82.50;;;;;;5045832;28;20170;-63
2021/03/09 12:25:56;;;;;;;9.75;6.22;;;11.20;81.40;;;;;;5045495;28;20075;-62
2021/03/09 12:28:22;;;;;;;8.40;5.63;;;11.50;81.40;;;;;;5045905;28;20052;-62
2021/03/09 12:30:48;;;;;;;10.60;7.55;;;11.80;82.50;;;;;;5045801;28;20027;-62
2021/03/09 12:33:15;;;;;;;9.23;7.05;;;11.50;80.50;;;;;;5045793;28;20039;-62
2021/03/09 12:35:41;;;;;;;16.40;10.25;;;11.70;81.00;;;;;;5045650;28;20450;-61
2021/03/09 12:38:06;;;;;;;16.42;10.18;;;11.20;80.00;;;;;;5045726;28;20737;-62
2021/03/09 12:40:32;;;;;;;12.25;8.93;;;11.10;79.80;;;;;;5045492;28;20108;-62
2021/03/09 12:42:58;;;;;;;15.23;10.35;;;11.20;81.10;;;;;;5045149;28;20037;-62
2021/03/09 12:45:25;;;;;;;17.80;11.95;;;11.30;80.60;;;;;;5045580;28;20032;-63
2021/03/09 12:47:52;;;;;;;16.13;10.52;;;11.20;79.90;;;;;;5044959;28;20067;-63
2021/03/09 12:50:19;;;;;;;12.02;7.82;;;11.40;80.30;;;;;;5045234;28;20035;-63
2021/03/09 12:52:44;;;;;;;11.25;7.63;;;11.90;80.80;;;;;;5045937;28;20029;-63
2021/03/09 12:55:12;;;;;;;10.15;7.00;;;11.90;80.90;;;;;;5045116;28;20094;-62
2021/03/09 12:57:37;;;;;;;12.45;8.27;;;12.10;81.10;;;;;;5045003;28;20029;-62